Terminal Aerodrome Forecast
Issued by NWS Sterling, VA

Current Version | Previous Version | Graphics & Text | Print | Product List | Glossary On
Versions: 1 2 3 4 5 6 7 8 9 10 11 12 13 14 15 16 17 18 19 20 21 22 23 24
000
FTUS41 KLWX 221436 AAA
TAFDCA
TAF AMD
KDCA 221436Z 2215/2318 04013KT 5SM -RADZ OVC025
     FM221700 03007KT 5SM -RADZ OVC008
     FM230600 06006KT 2SM -RADZ OVC003
     FM231500 09005KT 5SM -RADZ OVC008=

USA.gov is the U.S. government's official web portal to all federal, state and local government web resources and services.